Time;durP1;ratioP1;P1;durP2;ratioP2;P2;SDS_P1;SDS_P2;PMS_P1;PMS_P2;Temp;Humidity;BMP_temperature;BMP_pressure;BME280_temperature;BME280_humidity;BME280_pressure;Samples;Min_cycle;Max_cycle;Signal;HPM_P1;HPM_P2
2023/05/29 00:00:06;;;;;;;;;11.33;11.33;;;;;22.47;44.06;101333.16;5015133;28;45390;-73
2023/05/29 00:02:33;;;;;;;;;11.33;10.67;;;;;22.46;43.99;101342.06;5015408;28;45644;-71
2023/05/29 00:05:02;;;;;;;;;11.00;10.33;;;;;22.43;44.48;101335.06;5015267;28;45459;-71
2023/05/29 00:07:51;;;;;;;;;11.33;10.67;;;;;22.36;44.43;101328.22;4997285;28;47146;-71
2023/05/29 00:10:37;;;;;;;;;14.33;12.00;;;;;22.37;44.17;101337.06;4996865;28;45331;-73
2023/05/29 00:13:17;;;;;;;;;9.67;9.33;;;;;22.15;44.06;101303.16;4999858;28;45565;-74
2023/05/29 00:15:49;;;;;;;;;9.33;6.67;;;;;22.35;44.22;101338.94;5014449;28;45532;-72
2023/05/29 00:18:36;;;;;;;;;14.00;10.67;;;;;22.28;44.23;101338.31;4996199;28;46726;-71
2023/05/29 00:21:02;;;;;;;;;9.33;9.33;;;;;22.34;44.31;101354.06;5014225;28;45559;-73
2023/05/29 00:23:31;;;;;;;;;10.33;9.00;;;;;22.20;44.58;101327.00;5014310;28;45632;-72
2023/05/29 00:25:56;;;;;;;;;11.67;10.33;;;;;22.19;44.58;101333.28;5017585;28;45325;-72
2023/05/29 00:28:27;;;;;;;;;13.67;10.00;;;;;22.20;44.40;101340.34;4994809;28;46651;-71
2023/05/29 00:30:54;;;;;;;;;7.33;7.33;;;;;22.15;44.63;101340.50;5013734;28;45296;-72
2023/05/29 00:33:20;;;;;;;;;11.00;9.33;;;;;22.13;44.55;101337.03;4995278;28;45520;-71
2023/05/29 00:35:45;;;;;;;;;12.33;9.67;;;;;22.11;44.54;101336.22;4995352;28;45607;-72
2023/05/29 00:38:11;;;;;;;;;8.33;8.00;;;;;22.07;44.51;101328.38;4996483;28;45827;-72
2023/05/29 00:40:36;;;;;;;;;12.33;10.33;;;;;22.14;44.52;101351.22;4996400;28;45381;-71
2023/05/29 00:43:02;;;;;;;;;7.33;5.33;;;;;22.12;44.65;101347.78;5015022;28;45271;-72
2023/05/29 00:45:28;;;;;;;;;10.33;8.33;;;;;22.00;44.58;101331.28;5014591;28;45416;-72
2023/05/29 00:47:53;;;;;;;;;12.33;9.33;;;;;22.01;44.53;101326.81;5014442;28;45475;-71
2023/05/29 00:50:21;;;;;;;;;10.00;9.67;;;;;22.08;44.50;101343.47;4996121;28;45999;-71
2023/05/29 00:52:47;;;;;;;;;8.67;8.67;;;;;22.01;44.74;101329.47;5014141;28;45543;-71
2023/05/29 00:55:13;;;;;;;;;15.00;10.33;;;;;21.95;44.64;101330.56;4996210;28;45892;-72
2023/05/29 00:57:40;;;;;;;;;10.33;10.33;;;;;22.01;44.60;101341.00;4996048;28;47302;-72
2023/05/29 01:00:13;;;;;;;;;14.67;10.00;;;;;21.94;44.64;101334.16;5015506;28;45297;-72
2023/05/29 01:02:40;;;;;;;;;12.67;9.67;;;;;21.92;44.77;101337.81;5000739;28;45417;-71
2023/05/29 01:05:09;;;;;;;;;8.00;8.00;;;;;21.89;44.58;101340.59;5015568;28;45309;-71
2023/05/29 01:07:35;;;;;;;;;12.33;9.33;;;;;21.90;44.82;101339.66;4996100;28;46747;-71
2023/05/29 01:10:01;;;;;;;;;10.00;9.00;;;;;21.86;44.74;101344.25;5014221;28;45419;-71
2023/05/29 01:12:47;;;;;;;;;11.00;11.00;;;;;21.79;44.84;101329.38;5015581;28;45483;-71
2023/05/29 01:15:45;;;;;;;;;10.00;9.33;;;;;21.81;44.78;101343.53;4997748;28;45255;-73
2023/05/29 01:18:26;;;;;;;;;10.33;8.67;;;;;21.77;44.82;101340.09;4996269;28;47018;-71
2023/05/29 01:21:40;;;;;;;;;7.67;7.67;;;;;21.76;44.64;101343.69;4999829;28;45602;-71
2023/05/29 01:24:32;;;;;;;;;12.67;11.33;;;;;21.76;44.75;101334.84;4937301;28;45449;-73
2023/05/29 01:27:10;;;;;;;;;11.00;9.33;;;;;21.74;44.79;101342.00;5016812;28;45464;-71
2023/05/29 01:29:38;;;;;;;;;12.33;9.67;;;;;21.72;44.90;101341.19;5013200;28;45543;-71
2023/05/29 01:32:05;;;;;;;;;13.67;9.67;;;;;21.63;44.74;101328.16;4999026;28;45540;-73
2023/05/29 01:34:31;;;;;;;;;11.67;11.00;;;;;21.69;44.99;101338.59;5014175;28;45289;-71
2023/05/29 01:36:57;;;;;;;;;11.33;9.33;;;;;21.67;45.06;101354.69;4995975;28;45482;-71
2023/05/29 01:39:24;;;;;;;;;12.00;8.00;;;;;21.64;44.95;101344.13;5014427;28;45871;-71
2023/05/29 01:41:50;;;;;;;;;15.33;9.67;;;;;21.61;45.19;101344.22;4998124;28;45384;-72
2023/05/29 01:44:17;;;;;;;;;11.33;8.67;;;;;21.48;44.98;101325.13;4996155;28;45431;-72
2023/05/29 01:46:43;;;;;;;;;13.00;11.00;;;;;21.60;44.82;101345.16;5016952;28;45337;-70
2023/05/29 01:49:11;;;;;;;;;11.33;11.00;;;;;21.53;45.22;101339.16;5013991;28;45351;-72
2023/05/29 01:51:36;;;;;;;;;10.00;8.00;;;;;21.47;45.48;101349.13;4995662;28;45408;-73
2023/05/29 01:54:02;;;;;;;;;11.67;10.33;;;;;21.44;45.34;101344.78;5013308;28;45337;-71
2023/05/29 01:56:29;;;;;;;;;7.33;7.33;;;;;21.39;45.37;101339.59;5013810;28;45376;-71
2023/05/29 01:58:56;;;;;;;;;8.00;8.00;;;;;21.43;45.36;101347.50;4996028;28;46707;-72
2023/05/29 02:01:23;;;;;;;;;13.33;10.00;;;;;21.40;45.59;101343.13;4998337;28;45521;-71
2023/05/29 02:03:48;;;;;;;;;12.33;9.00;;;;;21.38;45.45;101339.66;5013670;28;45568;-72
2023/05/29 02:06:15;;;;;;;;;13.00;12.00;;;;;21.11;45.56;101291.66;4995117;28;45826;-73
2023/05/29 02:08:40;;;;;;;;;11.00;9.67;;;;;21.35;45.61;101347.72;4995684;28;47046;-72
2023/05/29 02:11:06;;;;;;;;;7.33;7.00;;;;;21.35;45.61;101345.91;4997257;28;45898;-72
2023/05/29 02:13:32;;;;;;;;;9.33;7.00;;;;;21.26;45.72;101332.03;5017720;28;45407;-71
2023/05/29 02:15:57;;;;;;;;;11.67;10.67;;;;;21.29;45.66;101342.63;4996872;28;45643;-74
2023/05/29 02:18:23;;;;;;;;;7.00;6.67;;;;;21.24;45.79;101344.56;5011515;28;46938;-72
2023/05/29 02:20:49;;;;;;;;;10.00;9.33;;;;;21.19;45.89;101331.38;4995506;28;45553;-74
2023/05/29 02:23:15;;;;;;;;;7.33;6.00;;;;;21.18;45.79;101334.97;4995763;28;45477;-73
2023/05/29 02:25:41;;;;;;;;;12.00;10.00;;;;;21.17;46.00;101341.22;5013915;28;45670;-76
2023/05/29 02:28:07;;;;;;;;;7.67;7.67;;;;;21.13;46.43;101351.09;5015801;28;45521;-72
2023/05/29 02:30:33;;;;;;;;;9.00;9.00;;;;;21.12;46.03;101343.16;5014210;28;45367;-72
2023/05/29 02:32:58;;;;;;;;;11.33;8.00;;;;;21.05;46.17;101336.28;4995898;28;45386;-72
2023/05/29 02:35:24;;;;;;;;;17.00;10.67;;;;;21.02;46.30;101333.72;5016105;28;45300;-71
2023/05/29 02:37:50;;;;;;;;;10.67;8.33;;;;;21.06;45.99;101346.00;4999463;28;45439;-74
2023/05/29 02:40:16;;;;;;;;;13.00;10.33;;;;;20.96;46.30;101332.13;4997325;28;45774;-72
2023/05/29 02:42:42;;;;;;;;;10.00;8.33;;;;;21.03;46.08;101343.47;4994994;28;45510;-71
2023/05/29 02:45:08;;;;;;;;;10.33;9.33;;;;;21.02;46.23;101347.03;5013388;28;45316;-72
2023/05/29 02:47:35;;;;;;;;;10.33;9.33;;;;;20.94;46.58;101349.94;5013282;28;46305;-71
2023/05/29 02:50:01;;;;;;;;;10.67;8.67;;;;;20.97;46.35;101365.81;5013315;28;45557;-72
2023/05/29 02:52:30;;;;;;;;;14.67;10.00;;;;;20.93;46.68;101364.19;4998147;28;45582;-72
2023/05/29 02:54:56;;;;;;;;;13.67;9.00;;;;;20.82;47.28;101367.16;5016933;28;45345;-72
2023/05/29 02:57:22;;;;;;;;;14.67;10.33;;;;;20.51;47.48;101338.78;5016486;28;46034;-73
2023/05/29 02:59:59;;;;;;;;;9.67;9.00;;;;;20.60;47.39;101360.75;5017154;28;45545;-71
2023/05/29 03:02:25;;;;;;;;;13.67;10.00;;;;;20.39;47.73;101333.81;4998319;28;45534;-71
2023/05/29 03:04:55;;;;;;;;;10.33;9.67;;;;;20.33;47.81;101334.88;5016491;28;45717;-71
2023/05/29 03:07:48;;;;;;;;;8.33;8.33;;;;;20.51;47.43;101373.38;4998135;28;47075;-70
2023/05/29 03:10:24;;;;;;;;;12.00;8.33;;;;;20.39;47.74;101346.25;4998278;28;45349;-72
2023/05/29 03:12:56;;;;;;;;;9.33;8.00;;;;;20.49;47.64;101361.88;4998039;28;45482;-73
2023/05/29 03:15:28;;;;;;;;;8.00;5.00;;;;;20.49;48.12;101383.19;5016157;28;45896;-72
2023/05/29 03:18:08;;;;;;;;;12.33;9.00;;;;;20.46;47.76;101383.28;5017729;28;45447;-72
2023/05/29 03:20:42;;;;;;;;;8.67;8.00;;;;;20.39;48.13;101364.88;5001974;28;45425;-71
2023/05/29 03:23:08;;;;;;;;;7.33;7.00;;;;;20.31;47.84;101349.13;5019032;28;45312;-72
2023/05/29 03:25:33;;;;;;;;;6.00;4.67;;;;;20.37;48.03;101356.06;5015918;28;45511;-76
2023/05/29 03:27:59;;;;;;;;;11.00;7.67;;;;;20.45;47.89;101380.66;4997234;28;47184;-74
2023/05/29 03:30:25;;;;;;;;;7.67;7.00;;;;;20.38;48.13;101371.09;4997577;28;45440;-74
2023/05/29 03:32:50;;;;;;;;;10.00;9.00;;;;;20.33;48.25;101377.44;5015726;28;45368;-72
2023/05/29 03:35:16;;;;;;;;;9.00;9.00;;;;;20.37;48.27;101383.53;5015512;28;45467;-71
2023/05/29 03:37:41;;;;;;;;;8.67;7.33;;;;;20.22;48.58;101358.25;5015292;28;46158;-71
2023/05/29 03:40:07;;;;;;;;;10.67;7.33;;;;;20.13;48.18;101348.72;4998155;28;45340;-71
2023/05/29 03:42:33;;;;;;;;;12.33;9.67;;;;;20.16;48.23;101353.09;4997556;28;45376;-71
2023/05/29 03:44:59;;;;;;;;;10.33;9.00;;;;;20.28;48.38;101387.31;4999921;28;45405;-72
2023/05/29 03:47:24;;;;;;;;;13.00;10.00;;;;;20.24;48.68;101384.78;5019682;28;45479;-72
2023/05/29 03:49:50;;;;;;;;;14.00;11.00;;;;;20.26;48.64;101394.50;5019776;28;45420;-72
2023/05/29 03:52:16;;;;;;;;;8.67;8.67;;;;;20.14;48.99;101373.53;5019234;28;45600;-73
2023/05/29 03:54:41;;;;;;;;;9.67;7.33;;;;;20.17;48.92;101388.53;5015092;28;45726;-70
2023/05/29 03:57:08;;;;;;;;;15.33;11.00;;;;;20.20;48.76;101389.34;5014947;28;45808;-70
2023/05/29 03:59:34;;;;;;;;;11.33;10.00;;;;;20.15;49.30;101388.59;5015624;28;45582;-71
2023/05/29 04:01:59;;;;;;;;;10.00;8.33;;;;;20.12;48.65;101386.88;4997501;28;45459;-70
2023/05/29 04:04:25;;;;;;;;;11.33;9.00;;;;;20.13;48.93;101388.63;5015557;28;45821;-70
2023/05/29 04:06:51;;;;;;;;;11.50;8.00;;;;;20.04;48.90;101388.00;4996712;28;48068;-70
2023/05/29 04:09:16;;;;;;;;;8.67;7.67;;;;;20.08;48.77;101398.50;4997065;28;45467;-70
2023/05/29 04:11:44;;;;;;;;;10.67;10.33;;;;;20.10;49.24;101404.66;4996905;28;45822;-71
2023/05/29 04:14:10;;;;;;;;;11.33;7.33;;;;;20.09;49.09;101402.03;5015587;28;45473;-72
2023/05/29 04:16:35;;;;;;;;;11.00;8.33;;;;;20.10;48.94;101409.13;4997194;28;46762;-72
2023/05/29 04:19:01;;;;;;;;;11.33;8.00;;;;;20.02;48.92;101395.16;4996816;28;45665;-72
2023/05/29 04:21:44;;;;;;;;;10.00;8.00;;;;;20.01;49.15;101401.38;5018897;28;45698;-73
2023/05/29 04:24:10;;;;;;;;;7.00;7.00;;;;;20.07;48.99;101410.09;5001188;28;45622;-72
2023/05/29 04:26:40;;;;;;;;;11.00;8.00;;;;;20.16;49.26;101418.72;5017386;28;46514;-72
2023/05/29 04:29:07;;;;;;;;;14.33;10.67;;;;;20.14;49.13;101416.09;5000452;28;45440;-72
2023/05/29 04:31:44;;;;;;;;;9.67;9.00;;;;;20.09;49.23;101424.19;5018746;28;45365;-70
2023/05/29 04:34:10;;;;;;;;;9.00;7.67;;;;;20.03;49.05;101413.72;5014975;28;45536;-71
2023/05/29 04:37:02;;;;;;;;;9.00;7.00;;;;;20.11;49.11;101424.16;4996461;28;46766;-71
2023/05/29 04:39:29;;;;;;;;;11.00;8.00;;;;;20.11;49.15;101432.13;5017399;28;45431;-72
2023/05/29 04:41:56;;;;;;;;;8.67;8.67;;;;;20.06;49.01;101436.69;5019077;28;45435;-71
2023/05/29 04:44:22;;;;;;;;;12.67;12.00;;;;;19.84;49.18;101391.19;5018934;28;45677;-71
2023/05/29 04:46:48;;;;;;;;;12.00;11.00;;;;;20.14;49.40;101440.03;4999620;28;45593;-71
2023/05/29 04:49:14;;;;;;;;;13.00;10.33;;;;;19.99;49.29;101437.78;5014431;28;45475;-76
2023/05/29 04:51:42;;;;;;;;;17.67;11.33;;;;;20.12;49.22;101450.72;5014762;28;45349;-77
2023/05/29 04:54:09;;;;;;;;;14.00;12.67;;;;;20.10;49.11;101449.88;4996724;28;45536;-74
2023/05/29 04:56:34;;;;;;;;;14.00;11.00;;;;;20.07;49.32;101452.63;4996242;28;46164;-71
2023/05/29 04:59:00;;;;;;;;;13.00;10.33;;;;;20.10;49.55;101451.66;5017774;28;45476;-74
2023/05/29 05:01:25;;;;;;;;;14.33;9.67;;;;;20.03;49.17;101436.78;5014641;28;45440;-74
2023/05/29 05:03:55;;;;;;;;;10.00;8.33;;;;;20.16;49.35;101462.13;4997110;28;45608;-75
2023/05/29 05:06:22;;;;;;;;;15.00;9.33;;;;;20.03;49.07;101435.00;4977596;28;47647;-76
2023/05/29 05:08:47;;;;;;;;;17.33;11.00;;;;;20.20;49.15;101460.28;4994718;28;45378;-73
2023/05/29 05:11:14;;;;;;;;;14.67;11.00;;;;;20.19;49.20;101459.38;4994505;28;45396;-71
2023/05/29 05:13:39;;;;;;;;;15.67;10.00;;;;;20.17;49.24;101461.22;4994510;28;46124;-74
2023/05/29 05:16:06;;;;;;;;;13.33;11.67;;;;;20.23;49.15;101460.19;4979636;28;46802;-74
2023/05/29 05:18:31;;;;;;;;;12.33;11.00;;;;;20.24;48.95;101462.81;4996407;28;45539;-75
2023/05/29 05:20:57;;;;;;;;;17.00;11.00;;;;;20.27;49.06;101468.03;4997204;28;45478;-73
2023/05/29 05:23:23;;;;;;;;;18.00;11.33;;;;;20.26;49.09;101454.78;4978432;28;45401;-71
2023/05/29 05:25:48;;;;;;;;;12.33;9.67;;;;;20.22;49.32;101458.47;4994476;28;45417;-73
2023/05/29 05:28:14;;;;;;;;;10.00;10.00;;;;;20.30;48.88;101462.63;4994833;28;45666;-71
2023/05/29 05:30:40;;;;;;;;;14.67;11.67;;;;;20.37;48.62;101467.81;4979380;28;45406;-72
2023/05/29 05:33:06;;;;;;;;;14.00;13.33;;;;;20.31;48.84;101455.53;4976907;28;45384;-71
2023/05/29 05:35:33;;;;;;;;;13.00;12.67;;;;;20.38;48.75;101464.22;5012994;28;45935;-72
2023/05/29 05:37:58;;;;;;;;;13.00;11.00;;;;;20.44;48.79;101466.72;4992628;28;45613;-71
2023/05/29 05:40:27;;;;;;;;;12.00;9.33;;;;;20.54;48.39;101470.88;5007896;28;45775;-70
2023/05/29 05:42:52;;;;;;;;;12.67;12.67;;;;;20.59;48.51;101476.09;5013431;28;45464;-70
2023/05/29 05:45:18;;;;;;;;;12.33;10.33;;;;;20.44;48.37;101445.44;5012320;28;46256;-71
2023/05/29 05:47:44;;;;;;;;;18.00;14.67;;;;;20.73;48.04;101487.22;4994151;28;45450;-71
2023/05/29 05:50:10;;;;;;;;;20.33;15.67;;;;;20.54;48.53;101476.19;5013407;28;45463;-70
2023/05/29 05:52:35;;;;;;;;;14.67;14.33;;;;;20.54;48.56;101484.16;5013299;28;45512;-73
2023/05/29 05:55:01;;;;;;;;;11.00;8.00;;;;;20.57;48.71;101491.22;5013576;28;46030;-77
2023/05/29 05:57:27;;;;;;;;;15.00;12.67;;;;;20.56;48.37;101490.34;5014084;28;45349;-71
2023/05/29 05:59:53;;;;;;;;;13.00;12.67;;;;;20.58;48.20;101488.53;4996119;28;45368;-73
2023/05/29 06:02:18;;;;;;;;;21.00;17.00;;;;;20.62;48.61;101491.97;5013786;28;45476;-74
2023/05/29 06:04:44;;;;;;;;;20.67;16.33;;;;;20.52;49.30;101493.97;4979252;28;48154;-71
2023/05/29 06:07:13;;;;;;;;;18.00;14.67;;;;;20.57;48.77;101500.06;5013150;28;45720;-72
2023/05/29 06:09:39;;;;;;;;;20.67;17.00;;;;;20.60;48.27;101492.03;4995533;28;45468;-71
2023/05/29 06:12:07;;;;;;;;;17.67;11.33;;;;;20.36;48.59;101464.28;5013932;28;45495;-71
2023/05/29 06:14:33;;;;;;;;;13.33;12.33;;;;;20.63;48.17;101493.72;5011397;28;45622;-70
2023/05/29 06:16:58;;;;;;;;;14.00;11.67;;;;;20.73;48.41;101498.75;4995459;28;45592;-70
2023/05/29 06:19:24;;;;;;;;;10.33;10.33;;;;;20.81;47.71;101495.88;5013427;28;45512;-70
2023/05/29 06:21:49;;;;;;;;;15.67;13.00;;;;;20.75;47.60;101478.28;4995693;28;45774;-71
2023/05/29 06:24:15;;;;;;;;;18.67;15.00;;;;;21.02;47.43;101497.03;5012955;28;46469;-77
2023/05/29 06:26:41;;;;;;;;;17.67;12.00;;;;;21.00;47.22;101501.56;5017275;28;45492;-71
2023/05/29 06:29:06;;;;;;;;;17.67;16.00;;;;;21.02;47.27;101501.47;4998943;28;45868;-71
2023/05/29 06:31:33;;;;;;;;;19.67;15.67;;;;;21.01;47.18;101510.41;4994693;28;45772;-71
2023/05/29 06:33:59;;;;;;;;;14.67;13.67;;;;;20.98;47.33;101521.16;5015536;28;46535;-71
2023/05/29 06:36:24;;;;;;;;;16.33;14.00;;;;;21.01;47.46;101529.06;5015968;28;45495;-71
2023/05/29 06:38:50;;;;;;;;;12.33;10.33;;;;;20.96;47.33;101499.88;4998126;28;45389;-72
2023/05/29 06:41:16;;;;;;;;;15.33;12.33;;;;;21.09;47.02;101516.38;5016224;28;45967;-74
2023/05/29 06:43:42;;;;;;;;;14.33;12.00;;;;;21.12;47.30;101526.94;5016509;28;46296;-73
2023/05/29 06:46:08;;;;;;;;;17.33;12.67;;;;;21.17;47.15;101523.22;4998531;28;45522;-69
2023/05/29 06:48:35;;;;;;;;;16.67;13.00;;;;;21.27;46.97;101523.81;4998406;28;45731;-71
2023/05/29 06:51:08;;;;;;;;;13.00;12.33;;;;;21.35;46.77;101524.44;5016246;28;45546;-70
2023/05/29 06:53:40;;;;;;;;;13.67;12.33;;;;;21.38;46.39;101503.06;5016821;28;46278;-71
2023/05/29 06:56:06;;;;;;;;;15.00;11.33;;;;;21.57;46.10;101529.19;4981692;28;45413;-72
2023/05/29 06:58:32;;;;;;;;;11.00;10.67;;;;;21.65;45.93;101518.25;4996713;28;45398;-72
2023/05/29 07:00:59;;;;;;;;;10.00;10.00;;;;;21.78;45.81;101525.81;4998611;28;45512;-71
2023/05/29 07:03:27;;;;;;;;;15.67;13.67;;;;;21.78;45.68;101524.94;4999474;28;46842;-77
2023/05/29 07:05:53;;;;;;;;;17.67;11.33;;;;;21.85;45.58;101517.63;5016681;28;45404;-75
2023/05/29 07:08:19;;;;;;;;;10.67;10.67;;;;;21.93;45.27;101534.25;5019052;28;45338;-77
2023/05/29 07:10:46;;;;;;;;;15.67;13.00;;;;;21.86;45.37;101520.25;5007883;28;45368;-75
2023/05/29 07:13:16;;;;;;;;;17.00;11.67;;;;;21.83;45.32;101498.13;4996995;28;46773;-72
2023/05/29 07:15:45;;;;;;;;;15.67;10.67;;;;;22.06;45.15;101527.56;4979752;28;45303;-71
2023/05/29 07:18:11;;;;;;;;;11.33;9.33;;;;;22.13;45.00;101515.78;4983315;28;45852;-72
2023/05/29 07:20:48;;;;;;;;;13.67;10.33;;;;;22.22;45.04;101515.50;5015782;28;45498;-77
2023/05/29 07:23:14;;;;;;;;;15.67;11.00;;;;;22.22;44.38;101517.28;4993994;28;47006;-71
2023/05/29 07:25:43;;;;;;;;;11.00;11.00;;;;;22.34;44.53;101535.53;5015753;28;45589;-71
2023/05/29 07:28:09;;;;;;;;;12.00;10.00;;;;;22.31;44.11;101513.44;4999532;28;45396;-73
2023/05/29 07:30:34;;;;;;;;;13.67;11.33;;;;;22.38;44.18;101526.53;5016092;28;45418;-72
2023/05/29 07:33:00;;;;;;;;;9.33;8.67;;;;;22.49;44.33;101527.94;5016008;28;45479;-72
2023/05/29 07:35:26;;;;;;;;;12.33;12.00;;;;;22.47;44.22;101522.66;5019081;28;45447;-72
2023/05/29 07:37:53;;;;;;;;;15.67;13.33;;;;;22.46;45.77;101518.25;5015544;28;45492;-71
2023/05/29 07:40:19;;;;;;;;;13.33;11.00;;;;;22.62;44.78;101538.13;5016619;28;45892;-73
2023/05/29 07:42:45;;;;;;;;;12.33;12.33;;;;;22.68;45.01;101520.13;4997115;28;46864;-72
2023/05/29 07:45:14;;;;;;;;;10.00;9.00;;;;;22.61;44.44;101503.47;4997491;28;45593;-74
2023/05/29 07:47:40;;;;;;;;;19.00;14.33;;;;;22.72;44.83;101519.97;5019710;28;45367;-72
2023/05/29 07:50:06;;;;;;;;;12.00;12.00;;;;;22.77;44.09;101522.47;5018287;28;45645;-72
2023/05/29 07:52:32;;;;;;;;;18.67;16.00;;;;;22.64;44.79;101503.38;5014916;28;45722;-74
2023/05/29 07:55:01;;;;;;;;;18.33;15.00;;;;;22.84;44.63;101537.34;5015085;28;45469;-73
2023/05/29 07:57:28;;;;;;;;;15.67;13.67;;;;;22.80;45.15;101533.94;5014287;28;45462;-74
2023/05/29 07:59:57;;;;;;;;;23.33;19.67;;;;;22.58;43.57;101533.81;4997497;28;45476;-71
2023/05/29 08:02:23;;;;;;;;;13.67;13.67;;;;;22.28;44.36;101511.75;4990613;28;46766;-71
2023/05/29 08:04:48;;;;;;;;;15.67;13.00;;;;;22.35;44.66;101526.63;5003020;28;45455;-73
2023/05/29 08:07:14;;;;;;;;;15.33;13.67;;;;;22.44;44.70;101523.63;5017605;28;45396;-72
2023/05/29 08:09:40;;;;;;;;;10.67;10.67;;;;;22.55;44.21;101523.25;5020596;28;45388;-70
2023/05/29 08:12:06;;;;;;;;;13.33;12.33;;;;;22.55;44.15;101509.03;5016850;28;45847;-76
2023/05/29 08:14:32;;;;;;;;;16.33;13.67;;;;;22.60;43.79;101501.72;4997954;28;45842;-72
2023/05/29 08:16:58;;;;;;;;;14.67;12.33;;;;;22.73;43.43;101519.06;5015287;28;45538;-73
2023/05/29 08:19:24;;;;;;;;;15.67;11.67;;;;;22.75;43.48;101513.66;4998424;28;45697;-75
2023/05/29 08:21:50;;;;;;;;;12.00;10.33;;;;;22.91;43.15;101522.84;5017192;28;45477;-74
2023/05/29 08:24:16;;;;;;;;;20.00;17.33;;;;;22.94;43.17;101511.16;5001705;28;45429;-73
2023/05/29 08:26:43;;;;;;;;;14.67;13.67;;;;;22.86;43.15;101512.34;5015896;28;45532;-73
2023/05/29 08:29:09;;;;;;;;;17.33;17.33;;;;;22.87;43.17;101507.84;4997943;28;45329;-78
2023/05/29 08:31:34;;;;;;;;;18.67;16.67;;;;;22.95;43.19;101532.50;5015138;28;46080;-76
2023/05/29 08:34:00;;;;;;;;;19.00;14.33;;;;;23.02;43.01;101547.41;5016636;28;45440;-72
2023/05/29 08:36:28;;;;;;;;;17.33;13.67;;;;;22.84;43.11;101499.97;5017238;28;45510;-75
2023/05/29 08:38:57;;;;;;;;;19.33;15.33;;;;;23.01;43.01;101539.44;4983531;28;46554;-71
2023/05/29 08:41:49;;;;;;;;;19.00;18.67;;;;;23.03;43.18;101545.59;5012790;28;45503;-75
2023/05/29 08:44:20;;;;;;;;;17.00;16.00;;;;;23.02;43.32;101538.53;5003153;28;45573;-76
2023/05/29 08:46:46;;;;;;;;;15.67;14.00;;;;;23.08;43.19;101535.59;5012654;28;45523;-77
2023/05/29 08:49:19;;;;;;;;;18.67;17.00;;;;;23.14;42.97;101538.06;5011167;28;45942;-71
2023/05/29 08:51:50;;;;;;;;;20.00;16.00;;;;;23.03;43.12;101510.88;4995419;28;46392;-76
2023/05/29 08:54:16;;;;;;;;;15.67;14.67;;;;;23.22;43.21;101535.94;5012847;28;45381;-73
2023/05/29 08:56:42;;;;;;;;;15.33;15.33;;;;;23.15;42.84;101528.22;5017499;28;45306;-71
2023/05/29 08:59:12;;;;;;;;;15.67;14.67;;;;;23.14;42.93;101521.16;4998853;28;46465;-71
2023/05/29 09:01:38;;;;;;;;;14.00;13.33;;;;;23.16;43.56;101524.63;4999338;28;46960;-75
2023/05/29 09:04:04;;;;;;;;;16.00;14.00;;;;;23.21;43.43;101525.34;4995549;28;45522;-76
2023/05/29 09:06:30;;;;;;;;;23.33;23.00;;;;;23.09;42.82;101502.63;4995479;28;45424;-75
2023/05/29 09:08:59;;;;;;;;;16.00;14.00;;;;;23.08;42.94;101503.53;5010714;28;45409;-73
2023/05/29 09:11:25;;;;;;;;;20.00;18.33;;;;;23.15;42.97;101517.53;5014603;28;46008;-74
2023/05/29 09:13:52;;;;;;;;;23.00;18.67;;;;;23.03;42.89;101502.84;5015761;28;45477;-75
2023/05/29 09:16:22;;;;;;;;;15.33;13.33;;;;;23.25;43.53;101533.19;5017673;28;45474;-81
2023/05/29 09:18:48;;;;;;;;;15.00;13.33;;;;;23.41;43.04;101545.94;4997413;28;45407;-79
2023/05/29 09:21:29;;;;;;;;;22.33;14.67;;;;;23.37;42.98;101512.22;5019430;28;46229;-79
2023/05/29 09:24:03;;;;;;;;;16.33;14.00;;;;;23.32;42.79;101491.03;5018501;28;45332;-76
2023/05/29 09:26:29;;;;;;;;;19.67;16.00;;;;;23.44;42.34;101524.44;5017676;28;45492;-74
2023/05/29 09:28:55;;;;;;;;;14.33;13.00;;;;;22.98;42.62;101457.59;5012991;28;45597;-73
2023/05/29 09:31:21;;;;;;;;;22.67;20.00;;;;;23.31;42.26;101504.47;5013903;28;46204;-80
2023/05/29 09:33:48;;;;;;;;;29.67;21.33;;;;;23.24;42.07;101491.34;4997282;28;45624;-74
2023/05/29 09:36:22;;;;;;;;;24.67;19.67;;;;;23.45;42.47;101536.88;5016671;28;46255;-78
2023/05/29 09:38:48;;;;;;;;;22.00;19.67;;;;;23.39;42.92;101529.09;5015147;28;45496;-71
2023/05/29 09:41:22;;;;;;;;;18.33;15.00;;;;;23.31;42.75;101502.66;5012566;28;45528;-75
2023/05/29 09:43:49;;;;;;;;;19.00;17.33;;;;;23.45;42.49;101510.16;5013519;28;45501;-76
2023/05/29 09:46:18;;;;;;;;;21.67;18.33;;;;;23.43;42.27;101490.63;5016328;28;45439;-76
2023/05/29 09:48:45;;;;;;;;;21.67;19.67;;;;;23.71;41.75;101531.34;5015988;28;45372;-75
2023/05/29 09:51:23;;;;;;;;;18.67;18.67;;;;;23.76;41.94;101531.22;5011315;28;45532;-71
2023/05/29 09:53:56;;;;;;;;;22.33;17.67;;;;;23.84;42.16;101538.91;5015716;28;45456;-72
2023/05/29 09:56:24;;;;;;;;;23.67;19.67;;;;;23.84;41.60;101520.19;5018064;28;45409;-73
2023/05/29 09:58:51;;;;;;;;;18.33;17.00;;;;;23.95;41.75;101525.13;4999777;28;45471;-73
2023/05/29 10:01:17;;;;;;;;;18.33;16.67;;;;;23.89;41.61;101513.75;5016941;28;45427;-76
2023/05/29 10:03:45;;;;;;;;;30.67;26.33;;;;;24.01;41.00;101524.84;5018168;28;45483;-75
2023/05/29 10:06:18;;;;;;;;;20.33;19.00;;;;;23.82;41.74;101530.06;5017651;28;45474;-75
2023/05/29 10:08:50;;;;;;;;;25.00;21.00;;;;;23.88;41.64;101524.50;5017737;28;45742;-72
2023/05/29 10:11:24;;;;;;;;;15.00;15.00;;;;;23.91;41.73;101510.97;5017234;28;46240;-72
2023/05/29 10:13:51;;;;;;;;;22.67;20.33;;;;;24.07;41.45;101524.59;4995499;28;45400;-74
2023/05/29 10:16:21;;;;;;;;;25.33;23.67;;;;;24.14;41.49;101515.38;5014360;28;45324;-72
2023/05/29 10:18:57;;;;;;;;;25.00;22.67;;;;;24.12;41.43;101506.53;5017592;28;45290;-73
2023/05/29 10:21:27;;;;;;;;;23.33;22.67;;;;;24.12;41.49;101491.34;4999636;28;47721;-72
2023/05/29 10:23:54;;;;;;;;;20.67;19.33;;;;;24.21;41.43;101505.28;5017369;28;45822;-72
2023/05/29 10:26:25;;;;;;;;;25.33;22.33;;;;;24.26;40.89;101506.81;4995263;28;45496;-72
2023/05/29 10:29:39;;;;;;;;;24.33;22.33;;;;;24.34;41.07;101509.16;4997075;28;45373;-71
2023/05/29 10:32:20;;;;;;;;;23.33;20.33;;;;;24.38;41.10;101505.41;4999068;28;45901;-75
2023/05/29 10:34:51;;;;;;;;;26.33;21.67;;;;;24.42;40.95;101515.06;5012830;28;45416;-78
2023/05/29 10:37:43;;;;;;;;;27.33;22.67;;;;;24.44;40.74;101501.59;4986301;28;45847;-72
2023/05/29 10:40:14;;;;;;;;;26.67;25.33;;;;;24.55;40.75;101512.72;5013401;28;46633;-83
2023/05/29 10:42:46;;;;;;;;;29.00;24.67;;;;;24.52;41.19;101515.56;4996361;28;47846;-75
2023/05/29 10:45:32;;;;;;;;;29.00;27.33;;;;;24.09;41.06;101435.28;5013953;28;45585;-76
2023/05/29 10:48:10;;;;;;;;;25.33;25.33;;;;;24.59;40.84;101518.84;5000394;28;45427;-73
2023/05/29 10:50:38;;;;;;;;;26.67;26.00;;;;;24.51;40.69;101493.28;4993378;28;45900;-72
2023/05/29 10:53:09;;;;;;;;;26.33;22.67;;;;;24.48;40.33;101476.47;5008891;28;46321;-75
2023/05/29 10:55:39;;;;;;;;;30.00;28.67;;;;;24.66;40.51;101502.41;5009507;28;45599;-74
2023/05/29 10:58:15;;;;;;;;;25.33;22.33;;;;;24.64;40.78;101496.25;5010887;28;45460;-74
2023/05/29 11:00:47;;;;;;;;;24.67;24.67;;;;;24.81;40.24;101508.88;5010309;28;45305;-74
2023/05/29 11:03:21;;;;;;;;;29.00;26.67;;;;;24.63;40.32;101466.84;4978827;28;47475;-74
2023/05/29 11:06:10;;;;;;;;;27.00;25.00;;;;;24.78;40.39;101506.34;5013051;28;45547;-74
2023/05/29 11:08:55;;;;;;;;;23.00;21.67;;;;;24.84;40.92;101503.38;4991798;28;45427;-74
2023/05/29 11:11:26;;;;;;;;;26.33;24.67;;;;;24.98;40.97;101498.25;5011742;28;45368;-75
2023/05/29 11:13:56;;;;;;;;;24.33;24.33;;;;;24.24;40.32;101357.94;5016012;28;46790;-74
2023/05/29 11:16:25;;;;;;;;;24.33;22.33;;;;;25.19;40.50;101490.19;5016208;28;45506;-72
2023/05/29 11:18:52;;;;;;;;;23.33;22.33;;;;;25.11;40.50;101466.41;4997777;28;45599;-74